createdAt,value
2017-11-29T00:01:53.361Z,3.27
2017-11-29T00:04:21.646Z,3.20
2017-11-29T00:06:49.954Z,3.03
2017-11-29T00:09:18.232Z,3.20
2017-11-29T00:11:46.547Z,3.50
2017-11-29T00:14:15.591Z,3.90
2017-11-29T00:16:43.889Z,3.33
2017-11-29T00:19:12.174Z,4.40
2017-11-29T00:21:40.499Z,3.40
2017-11-29T00:24:08.779Z,3.70
2017-11-29T00:26:37.056Z,3.63
2017-11-29T00:29:05.377Z,4.40
2017-11-29T00:31:33.662Z,3.30
2017-11-29T00:34:02.047Z,3.13
2017-11-29T00:36:31.829Z,3.13
2017-11-29T00:39:00.108Z,4.53
2017-11-29T00:41:28.408Z,3.03
2017-11-29T00:43:56.692Z,3.70
2017-11-29T00:46:24.995Z,4.17
2017-11-29T00:48:53.273Z,3.60
2017-11-29T00:51:21.599Z,3.73
2017-11-29T00:53:49.921Z,2.43
2017-11-29T00:56:18.981Z,3.40
2017-11-29T00:58:47.305Z,3.90
2017-11-29T01:01:15.590Z,3.57
2017-11-29T01:03:43.873Z,3.23
2017-11-29T01:06:12.196Z,3.30
2017-11-29T01:08:41.236Z,3.60
2017-11-29T01:11:09.541Z,3.20
2017-11-29T01:13:37.835Z,3.10
2017-11-29T01:16:06.140Z,3.53
2017-11-29T01:18:34.519Z,3.70
2017-11-29T01:21:02.839Z,3.53
2017-11-29T01:23:31.875Z,3.80
2017-11-29T01:26:00.217Z,3.03
2017-11-29T01:28:28.501Z,4.00
2017-11-29T01:30:56.805Z,3.93
2017-11-29T01:33:25.085Z,3.30
2017-11-29T01:35:53.380Z,3.00
2017-11-29T01:38:21.660Z,3.10
2017-11-29T01:40:49.984Z,3.50
2017-11-29T01:43:18.304Z,3.70
2017-11-29T01:45:46.608Z,3.80
2017-11-29T01:48:14.883Z,3.40
2017-11-29T01:50:43.298Z,3.33
2017-11-29T01:53:11.656Z,3.30
2017-11-29T01:55:39.985Z,3.90
2017-11-29T01:58:08.270Z,3.80
2017-11-29T02:00:48.357Z,2.83
2017-11-29T02:03:16.679Z,4.00
2017-11-29T02:05:44.959Z,3.87
2017-11-29T02:08:13.253Z,3.40
2017-11-29T02:10:41.547Z,4.50
2017-11-29T02:13:09.884Z,3.83
2017-11-29T02:15:38.164Z,4.77
2017-11-29T02:18:06.559Z,3.83
2017-11-29T02:20:34.856Z,4.00
2017-11-29T02:23:03.160Z,3.40
2017-11-29T02:25:31.442Z,3.60
2017-11-29T02:28:00.525Z,4.13
2017-11-29T02:30:28.839Z,4.00
2017-11-29T02:32:57.153Z,3.50
2017-11-29T02:35:26.192Z,4.37
2017-11-29T02:37:54.502Z,3.90
2017-11-29T02:40:34.762Z,4.87
2017-11-29T02:43:03.073Z,4.60
2017-11-29T02:45:31.360Z,4.87
2017-11-29T02:47:59.668Z,3.83
2017-11-29T02:50:27.953Z,4.07
2017-11-29T02:52:56.328Z,3.83
2017-11-29T02:55:24.610Z,3.33
2017-11-29T02:57:52.916Z,5.50
2017-11-29T03:00:21.301Z,3.70
2017-11-29T03:02:49.629Z,4.93
2017-11-29T03:05:18.677Z,4.27
2017-11-29T03:07:46.981Z,4.10
2017-11-29T03:10:15.259Z,4.80
2017-11-29T03:12:43.580Z,4.40
2017-11-29T03:15:11.857Z,3.73
2017-11-29T03:17:40.586Z,4.97
2017-11-29T03:20:09.627Z,3.73
2017-11-29T03:22:37.928Z,3.70
2017-11-29T03:25:06.349Z,4.17
2017-11-29T03:27:34.640Z,4.53
2017-11-29T03:30:02.909Z,4.03
2017-11-29T03:32:31.216Z,3.70
2017-11-29T03:34:59.488Z,4.93
2017-11-29T03:37:27.893Z,4.60
2017-11-29T03:39:56.172Z,4.03
2017-11-29T03:42:24.448Z,4.33
2017-11-29T03:44:52.772Z,4.80
2017-11-29T03:47:21.051Z,4.10
2017-11-29T03:49:50.881Z,4.40
2017-11-29T03:52:19.270Z,4.10
2017-11-29T03:54:47.578Z,4.83
2017-11-29T03:57:16.639Z,5.00
2017-11-29T03:59:44.916Z,4.50
2017-11-29T04:02:13.240Z,4.40
2017-11-29T04:04:41.529Z,4.70
2017-11-29T04:07:11.358Z,4.40
2017-11-29T04:09:39.687Z,5.10
2017-11-29T04:12:08.004Z,4.73
2017-11-29T04:14:36.352Z,5.00
2017-11-29T04:17:05.388Z,5.03
2017-11-29T04:19:33.665Z,5.20
2017-11-29T04:22:01.964Z,4.67
2017-11-29T04:24:30.241Z,5.47
2017-11-29T04:26:58.575Z,5.03
2017-11-29T04:29:26.874Z,6.23
2017-11-29T04:31:55.200Z,4.77
2017-11-29T04:34:24.290Z,5.53
2017-11-29T04:36:52.580Z,5.43
2017-11-29T04:39:20.902Z,5.13
2017-11-29T04:41:49.212Z,5.23
2017-11-29T04:44:17.524Z,5.93
2017-11-29T04:46:45.804Z,4.83
2017-11-29T04:49:15.427Z,5.47
2017-11-29T04:51:43.724Z,5.77
2017-11-29T04:54:12.121Z,3.97
2017-11-29T04:56:40.459Z,4.33
2017-11-29T04:59:08.743Z,4.93
2017-11-29T05:01:37.019Z,5.10
2017-11-29T05:04:06.137Z,4.70
2017-11-29T05:06:34.418Z,4.33
2017-11-29T05:09:03.452Z,4.73
2017-11-29T05:11:31.775Z,5.57
2017-11-29T05:14:00.052Z,3.90
2017-11-29T05:16:28.372Z,5.93
2017-11-29T05:18:57.450Z,6.00
2017-11-29T05:21:26.616Z,5.23
2017-11-29T05:23:54.920Z,5.47
2017-11-29T05:26:23.211Z,5.17
2017-11-29T05:28:51.715Z,5.73
2017-11-29T05:31:19.996Z,5.30
2017-11-29T05:33:48.333Z,4.70
2017-11-29T05:36:16.643Z,5.60
2017-11-29T05:38:45.721Z,4.47
2017-11-29T05:41:14.004Z,4.27
2017-11-29T05:43:42.396Z,5.40
2017-11-29T05:46:10.720Z,5.70
2017-11-29T05:48:39.780Z,6.13
2017-11-29T05:51:08.089Z,4.60
2017-11-29T05:53:36.407Z,5.80
2017-11-29T05:56:05.447Z,6.33
2017-11-29T05:58:33.773Z,4.67
2017-11-29T06:01:02.067Z,5.13
2017-11-29T06:03:30.444Z,4.60
2017-11-29T06:05:58.764Z,5.40
2017-11-29T06:08:27.821Z,4.40
2017-11-29T06:10:56.148Z,4.90
2017-11-29T06:13:24.444Z,4.67
2017-11-29T06:15:52.813Z,5.47
2017-11-29T06:18:21.140Z,4.87
2017-11-29T06:20:50.228Z,4.77
2017-11-29T06:23:18.512Z,4.90
2017-11-29T06:25:46.854Z,5.73
2017-11-29T06:28:15.144Z,6.18
2017-11-29T06:30:43.477Z,4.90
2017-11-29T06:33:11.770Z,5.00
2017-11-29T06:35:40.077Z,5.67
2017-11-29T06:38:09.129Z,5.87
2017-11-29T06:40:37.484Z,8.40
2017-11-29T06:43:06.531Z,8.27
2017-11-29T06:45:34.825Z,6.72
2017-11-29T06:48:03.148Z,6.90
2017-11-29T06:50:32.223Z,5.50
2017-11-29T06:53:00.500Z,5.60
2017-11-29T06:55:28.808Z,4.87
2017-11-29T06:57:57.101Z,6.40
2017-11-29T07:00:25.503Z,7.00
2017-11-29T07:02:53.797Z,5.77
2017-11-29T07:05:22.093Z,6.83
2017-11-29T07:07:50.372Z,5.77
2017-11-29T07:10:18.700Z,8.20
2017-11-29T07:12:46.984Z,7.70
2017-11-29T07:15:16.052Z,6.60
2017-11-29T07:17:44.403Z,6.67
2017-11-29T07:20:12.688Z,6.50
2017-11-29T07:22:40.977Z,6.90
2017-11-29T07:25:09.322Z,6.27
2017-11-29T07:27:37.597Z,7.17
2017-11-29T07:30:05.913Z,6.13
2017-11-29T07:32:34.281Z,6.47
2017-11-29T07:35:02.584Z,6.60
2017-11-29T07:37:30.867Z,5.97
2017-11-29T07:39:59.196Z,6.27
2017-11-29T07:42:27.476Z,7.10
2017-11-29T07:44:55.768Z,7.27
2017-11-29T07:47:24.312Z,6.73
2017-11-29T07:49:52.597Z,6.20
2017-11-29T07:52:20.889Z,6.47
2017-11-29T07:54:49.191Z,6.20
2017-11-29T07:57:17.472Z,6.23
2017-11-29T07:59:45.805Z,5.90
2017-11-29T08:02:14.084Z,5.83
2017-11-29T08:04:42.392Z,6.87
2017-11-29T08:07:10.673Z,4.87
2017-11-29T08:09:39.028Z,5.33
2017-11-29T08:12:07.338Z,7.03
2017-11-29T08:14:36.388Z,6.83
2017-11-29T08:17:04.696Z,6.40
2017-11-29T08:19:32.985Z,7.50
2017-11-29T08:22:01.317Z,6.50
2017-11-29T08:24:29.596Z,5.97
2017-11-29T08:26:58.696Z,6.90
2017-11-29T08:29:27.747Z,6.20
2017-11-29T08:31:56.033Z,6.63
2017-11-29T08:34:24.368Z,5.40
2017-11-29T08:36:52.662Z,5.90
2017-11-29T08:39:21.734Z,6.23
2017-11-29T08:41:50.037Z,5.93
2017-11-29T08:44:18.365Z,6.80
2017-11-29T08:46:47.540Z,6.50
2017-11-29T08:49:15.821Z,6.20
2017-11-29T08:51:44.144Z,6.73
2017-11-29T08:54:12.419Z,6.27
2017-11-29T08:56:40.761Z,7.00
2017-11-29T08:59:09.088Z,7.87
2017-11-29T09:01:37.371Z,6.70
2017-11-29T09:04:05.672Z,7.70
2017-11-29T09:06:34.052Z,6.80
2017-11-29T09:09:02.438Z,7.43
2017-11-29T09:11:30.712Z,7.70
2017-11-29T09:13:59.126Z,7.33
2017-11-29T09:16:27.413Z,6.70
2017-11-29T09:18:55.700Z,7.47
2017-11-29T09:21:24.026Z,6.70
2017-11-29T09:23:53.120Z,8.40
2017-11-29T09:26:21.496Z,9.27
2017-11-29T09:28:49.845Z,8.00
2017-11-29T09:31:18.135Z,7.67
2017-11-29T09:33:46.415Z,7.70
2017-11-29T09:36:14.743Z,6.87
2017-11-29T09:38:43.048Z,7.87
2017-11-29T09:41:11.340Z,7.00
2017-11-29T09:43:39.636Z,7.80
2017-11-29T09:46:07.934Z,8.87
2017-11-29T09:48:37.032Z,7.87
2017-11-29T09:51:05.461Z,8.93
2017-11-29T09:53:33.755Z,7.33
2017-11-29T09:56:02.049Z,8.33
2017-11-29T09:58:30.387Z,6.90
2017-11-29T10:00:58.673Z,7.63
2017-11-29T10:03:27.027Z,7.50
2017-11-29T10:05:55.304Z,7.87
2017-11-29T10:08:23.633Z,7.67
2017-11-29T10:10:52.637Z,7.70
2017-11-29T10:13:20.971Z,8.43
2017-11-29T10:15:50.077Z,7.50
2017-11-29T10:18:19.120Z,8.03
2017-11-29T10:20:47.447Z,6.93
2017-11-29T10:23:15.777Z,6.60
2017-11-29T10:25:44.089Z,7.30
2017-11-29T10:28:12.398Z,7.77
2017-11-29T10:30:40.719Z,6.93
2017-11-29T10:33:09.767Z,7.70
2017-11-29T10:35:38.070Z,7.40
2017-11-29T10:38:06.414Z,7.50
2017-11-29T10:40:35.512Z,7.43
2017-11-29T10:43:03.827Z,7.43
2017-11-29T10:45:33.165Z,6.70
2017-11-29T10:48:01.512Z,8.50
2017-11-29T10:50:29.857Z,6.50
2017-11-29T10:52:58.180Z,8.23
2017-11-29T10:55:27.273Z,6.07
2017-11-29T10:57:55.561Z,7.30
2017-11-29T11:00:26.737Z,7.10
2017-11-29T11:02:55.032Z,7.20
2017-11-29T11:05:24.094Z,6.23
2017-11-29T11:07:53.058Z,7.93
2017-11-29T11:10:21.397Z,6.67
2017-11-29T11:12:49.720Z,7.23
2017-11-29T11:15:18.817Z,6.60
2017-11-29T11:17:47.164Z,6.30
2017-11-29T11:20:15.451Z,6.20
2017-11-29T11:22:43.746Z,6.80
2017-11-29T11:25:12.284Z,5.67
2017-11-29T11:27:41.320Z,6.90
2017-11-29T11:30:09.617Z,7.70
2017-11-29T11:32:37.952Z,7.93
2017-11-29T11:35:06.298Z,8.17
2017-11-29T11:37:34.581Z,6.57
2017-11-29T11:40:02.874Z,7.97
2017-11-29T11:42:31.221Z,6.27
2017-11-29T11:45:01.011Z,7.67
2017-11-29T11:47:29.388Z,6.53
2017-11-29T11:49:57.712Z,6.50
2017-11-29T11:52:26.012Z,7.63
2017-11-29T11:54:54.396Z,6.90
2017-11-29T11:57:22.694Z,7.43
2017-11-29T11:59:52.721Z,6.30
2017-11-29T12:02:22.518Z,6.53
2017-11-29T12:04:50.919Z,5.60
2017-11-29T12:07:19.209Z,8.80
2017-11-29T12:09:47.512Z,7.10
2017-11-29T12:12:15.814Z,6.13
2017-11-29T12:14:44.884Z,6.23
2017-11-29T12:17:13.185Z,7.07
2017-11-29T12:19:41.459Z,5.90
2017-11-29T12:22:09.836Z,5.27
2017-11-29T12:24:38.128Z,5.40
2017-11-29T12:27:06.464Z,5.97
2017-11-29T12:29:35.539Z,6.80
2017-11-29T12:32:03.864Z,5.47
2017-11-29T12:34:32.141Z,5.40
2017-11-29T12:37:00.476Z,5.63
2017-11-29T12:39:28.752Z,5.70
2017-11-29T12:41:58.115Z,5.93
2017-11-29T12:44:26.636Z,5.70
2017-11-29T12:46:54.915Z,5.83
2017-11-29T12:49:35.213Z,5.40
2017-11-29T12:52:04.260Z,4.80
2017-11-29T12:54:34.824Z,4.60
2017-11-29T12:57:03.144Z,5.40
2017-11-29T12:59:31.457Z,6.00
2017-11-29T13:02:00.574Z,4.97
2017-11-29T13:04:28.852Z,4.87
2017-11-29T13:06:57.900Z,5.63
2017-11-29T13:09:26.213Z,3.90
2017-11-29T13:11:54.508Z,5.27
2017-11-29T13:14:22.784Z,3.70
2017-11-29T13:16:51.116Z,3.97
2017-11-29T13:19:19.475Z,4.30
2017-11-29T13:21:47.799Z,4.27
2017-11-29T13:24:16.971Z,4.63
2017-11-29T13:26:45.292Z,3.50
2017-11-29T13:29:14.394Z,3.60
2017-11-29T13:31:43.472Z,4.13
2017-11-29T13:34:11.799Z,4.90
2017-11-29T13:36:40.853Z,3.40
2017-11-29T13:39:09.200Z,3.20
2017-11-29T13:41:39.086Z,4.30
2017-11-29T13:44:09.381Z,3.90
2017-11-29T13:46:37.679Z,5.03
2017-11-29T13:49:05.952Z,4.50
2017-11-29T13:51:34.281Z,4.50
2017-11-29T13:54:02.610Z,4.73
2017-11-29T13:56:30.928Z,4.50
2017-11-29T13:58:59.215Z,3.97
2017-11-29T14:01:27.512Z,4.90
2017-11-29T14:03:55.844Z,4.83
2017-11-29T14:06:24.177Z,5.17
2017-11-29T14:08:52.533Z,5.20
2017-11-29T14:11:20.860Z,4.23
2017-11-29T14:13:49.144Z,4.87
2017-11-29T14:16:17.491Z,4.13
2017-11-29T14:18:45.768Z,4.90
2017-11-29T14:21:14.105Z,5.20
2017-11-29T14:23:43.144Z,4.47
2017-11-29T14:26:11.426Z,5.10
2017-11-29T14:28:39.724Z,4.30
2017-11-29T14:31:08.041Z,4.30
2017-11-29T14:33:36.316Z,4.77
2017-11-29T14:36:04.615Z,5.57
2017-11-29T14:38:32.903Z,6.00
2017-11-29T14:41:01.298Z,6.27
2017-11-29T14:43:29.597Z,5.67
2017-11-29T14:45:57.876Z,4.67
2017-11-29T14:48:26.206Z,4.83
2017-11-29T14:50:55.282Z,6.03
2017-11-29T14:53:24.909Z,6.33
2017-11-29T14:55:53.197Z,6.80
2017-11-29T14:58:21.683Z,5.90
2017-11-29T15:00:50.940Z,5.47
2017-11-29T15:03:19.289Z,6.50
2017-11-29T15:05:47.648Z,5.53
2017-11-29T15:08:15.948Z,6.00
2017-11-29T15:10:44.220Z,5.90
2017-11-29T15:13:12.520Z,5.10
2017-11-29T15:15:40.809Z,6.03
2017-11-29T15:18:09.131Z,5.77
2017-11-29T15:20:37.413Z,6.13
2017-11-29T15:23:05.753Z,4.40
2017-11-29T15:25:34.081Z,7.33
2017-11-29T15:28:02.359Z,7.43
2017-11-29T15:30:30.688Z,8.00
2017-11-29T15:32:59.740Z,6.10
2017-11-29T15:35:28.064Z,7.30
2017-11-29T15:37:56.355Z,5.93
2017-11-29T15:40:24.718Z,5.90
2017-11-29T15:42:53.052Z,6.20
2017-11-29T15:45:22.124Z,5.90
2017-11-29T15:47:50.402Z,6.63
2017-11-29T15:50:18.709Z,6.17
2017-11-29T15:52:47.034Z,7.17
2017-11-29T15:55:16.125Z,5.83
2017-11-29T15:57:45.049Z,7.90
2017-11-29T16:00:14.128Z,9.60
2017-11-29T16:02:42.413Z,6.80
2017-11-29T16:05:11.134Z,11.57
2017-11-29T16:07:39.421Z,11.33
2017-11-29T16:10:07.846Z,15.47
2017-11-29T16:12:36.180Z,24.50
2017-11-29T16:15:04.482Z,13.63
2017-11-29T16:17:32.796Z,12.27
2017-11-29T16:20:01.979Z,11.57
2017-11-29T16:22:30.765Z,14.50
2017-11-29T16:24:59.099Z,11.03
2017-11-29T16:27:28.152Z,12.43
2017-11-29T16:29:56.472Z,9.95
2017-11-29T16:32:24.765Z,11.73
2017-11-29T16:34:53.098Z,12.67
2017-11-29T16:37:21.403Z,12.37
2017-11-29T16:39:49.745Z,11.90
2017-11-29T16:42:18.803Z,10.77
2017-11-29T16:44:49.130Z,9.43
2017-11-29T16:47:17.456Z,7.53
2017-11-29T16:49:45.762Z,7.03
2017-11-29T16:54:49.478Z,6.20
2017-11-29T16:57:19.064Z,6.07
2017-11-29T16:59:47.400Z,5.70
2017-11-29T17:02:15.677Z,5.67
2017-11-29T17:04:44.188Z,5.30
2017-11-29T17:07:12.465Z,4.93
2017-11-29T17:09:40.757Z,6.37
2017-11-29T17:12:10.791Z,5.00
2017-11-29T17:14:39.098Z,4.75
2017-11-29T17:17:08.152Z,4.90
2017-11-29T17:19:36.494Z,5.90
2017-11-29T17:22:06.132Z,5.73
2017-11-29T17:24:34.438Z,5.72
2017-11-29T17:27:02.785Z,6.12
2017-11-29T17:29:31.155Z,4.53
2017-11-29T17:31:59.464Z,5.68
2017-11-29T17:34:29.284Z,6.40
2017-11-29T17:36:59.399Z,5.60
2017-11-29T17:39:27.735Z,5.93
2017-11-29T17:41:56.076Z,6.87
2017-11-29T17:44:24.398Z,4.87
2017-11-29T17:46:52.700Z,6.07
2017-11-29T17:49:21.808Z,5.83
2017-11-29T17:51:50.914Z,4.10
2017-11-29T17:54:20.021Z,3.90
2017-11-29T17:56:49.098Z,5.78
2017-11-29T17:59:17.417Z,4.00
2017-11-29T18:01:46.552Z,4.25
2017-11-29T18:04:14.955Z,4.72
2017-11-29T18:06:43.245Z,4.57
2017-11-29T18:09:11.559Z,5.65
2017-11-29T18:11:39.961Z,5.87
2017-11-29T18:14:08.285Z,6.90
2017-11-29T18:16:37.439Z,5.90
2017-11-29T18:19:05.811Z,6.62
2017-11-29T18:21:34.137Z,5.50
2017-11-29T18:24:02.466Z,4.97
2017-11-29T18:26:31.862Z,5.25
2017-11-29T18:29:00.936Z,7.17
2017-11-29T18:31:29.814Z,5.80
2017-11-29T18:33:58.144Z,8.65
2017-11-29T18:36:26.510Z,7.35
2017-11-29T18:38:54.840Z,6.40
2017-11-29T18:41:24.066Z,8.98
2017-11-29T18:43:53.194Z,9.03
2017-11-29T18:46:22.563Z,6.95
2017-11-29T18:48:50.985Z,6.15
2017-11-29T18:51:20.159Z,6.95
2017-11-29T18:53:49.256Z,7.72
2017-11-29T18:56:17.560Z,5.93
2017-11-29T18:58:45.968Z,5.60
2017-11-29T19:01:15.080Z,8.07
2017-11-29T19:03:44.370Z,5.85
2017-11-29T19:06:13.869Z,6.73
2017-11-29T19:08:42.160Z,5.65
2017-11-29T19:11:10.491Z,5.40
2017-11-29T19:13:38.768Z,6.07
2017-11-29T19:16:07.117Z,6.30
2017-11-29T19:18:35.411Z,5.97
2017-11-29T19:21:03.785Z,5.75
2017-11-29T19:23:32.133Z,5.37
2017-11-29T19:26:00.469Z,5.68
2017-11-29T19:28:28.786Z,5.32
2017-11-29T19:30:57.133Z,7.57
2017-11-29T19:33:25.466Z,6.05
2017-11-29T19:35:53.775Z,7.45
2017-11-29T19:38:22.069Z,6.40
2017-11-29T19:40:50.388Z,7.15
2017-11-29T19:43:18.688Z,7.03
2017-11-29T19:45:47.004Z,6.70
2017-11-29T19:48:15.308Z,6.62
2017-11-29T19:50:43.680Z,9.00
2017-11-29T19:53:11.964Z,10.30
2017-11-29T19:55:40.257Z,7.82
2017-11-29T19:58:08.584Z,9.73
2017-11-29T20:00:37.024Z,10.40
2017-11-29T20:03:06.469Z,10.95
2017-11-29T20:05:34.885Z,10.43
2017-11-29T20:08:03.209Z,9.85
2017-11-29T20:10:31.542Z,10.15
2017-11-29T20:12:59.926Z,10.25
2017-11-29T20:15:28.279Z,9.88
2017-11-29T20:17:56.602Z,9.73
2017-11-29T20:20:24.918Z,7.82
2017-11-29T20:22:53.204Z,7.90
2017-11-29T20:25:21.564Z,7.28
2017-11-29T20:27:49.879Z,8.23
2017-11-29T20:30:18.177Z,7.45
2017-11-29T20:32:46.511Z,8.90
2017-11-29T20:35:14.818Z,6.37
2017-11-29T20:37:43.144Z,6.45
2017-11-29T20:40:11.508Z,8.23
2017-11-29T20:42:39.803Z,8.35
2017-11-29T20:45:08.144Z,8.18
2017-11-29T20:47:37.432Z,6.75
2017-11-29T20:50:07.505Z,7.90
2017-11-29T20:52:47.816Z,7.00
2017-11-29T20:55:16.250Z,6.95
2017-11-29T20:57:45.362Z,6.40
2017-11-29T21:00:14.472Z,7.85
2017-11-29T21:02:43.572Z,5.80
2017-11-29T21:05:11.917Z,6.90
2017-11-29T21:07:40.290Z,7.22
2017-11-29T21:10:09.533Z,7.95
2017-11-29T21:12:37.867Z,8.35
2017-11-29T21:15:06.160Z,7.78
2017-11-29T21:17:34.568Z,8.82
2017-11-29T21:20:03.028Z,10.35
2017-11-29T21:22:32.144Z,10.43
2017-11-29T21:25:01.207Z,10.98
2017-11-29T21:27:29.557Z,8.45
2017-11-29T21:29:57.846Z,10.95
2017-11-29T21:32:26.193Z,9.98
2017-11-29T21:34:54.531Z,8.82
2017-11-29T21:37:22.821Z,9.02
2017-11-29T21:39:51.194Z,10.68
2017-11-29T21:42:19.561Z,7.90
2017-11-29T21:44:47.844Z,7.87
2017-11-29T21:47:16.547Z,7.55
2017-11-29T21:49:44.837Z,7.80
2017-11-29T21:52:13.125Z,9.30
2017-11-29T21:54:41.472Z,8.10
2017-11-29T21:57:09.814Z,9.05
2017-11-29T21:59:39.013Z,8.38
2017-11-29T22:02:07.304Z,8.15
2017-11-29T22:04:35.798Z,9.25
2017-11-29T22:07:04.253Z,9.15
2017-11-29T22:09:32.579Z,8.15
2017-11-29T22:12:00.921Z,7.75
2017-11-29T22:14:29.449Z,7.43
2017-11-29T22:16:57.798Z,7.40
2017-11-29T22:19:26.124Z,7.35
2017-11-29T22:21:54.573Z,7.83
2017-11-29T22:24:22.884Z,7.82
2017-11-29T22:26:51.224Z,10.00
2017-11-29T22:29:19.577Z,8.00
2017-11-29T22:31:47.871Z,8.48
2017-11-29T22:34:16.156Z,8.80
2017-11-29T22:36:44.473Z,9.60
2017-11-29T22:39:12.793Z,9.33
2017-11-29T22:41:41.880Z,8.38
2017-11-29T22:44:11.681Z,8.85
2017-11-29T22:46:40.011Z,8.60
2017-11-29T22:49:09.112Z,9.03
2017-11-29T22:51:38.173Z,8.27
2017-11-29T22:54:06.480Z,7.50
2017-11-29T22:56:34.819Z,9.17
2017-11-29T22:59:03.882Z,9.52
2017-11-29T23:01:32.218Z,7.93
2017-11-29T23:04:00.554Z,7.50
2017-11-29T23:06:28.960Z,7.85
2017-11-29T23:08:57.248Z,8.55
2017-11-29T23:11:25.589Z,6.70
2017-11-29T23:13:53.880Z,7.25
2017-11-29T23:16:22.171Z,6.97
2017-11-29T23:18:50.512Z,8.00
2017-11-29T23:21:19.621Z,7.37
2017-11-29T23:23:47.916Z,9.83
2017-11-29T23:26:16.208Z,7.57
2017-11-29T23:28:44.551Z,8.80
2017-11-29T23:31:12.902Z,9.77
2017-11-29T23:33:41.973Z,9.10
2017-11-29T23:36:10.272Z,8.52
2017-11-29T23:38:40.561Z,8.82
2017-11-29T23:41:08.856Z,8.43
2017-11-29T23:43:37.167Z,8.05
2017-11-29T23:46:05.455Z,7.68
2017-11-29T23:48:33.772Z,9.35
2017-11-29T23:51:02.068Z,8.30
2017-11-29T23:53:31.185Z,8.93
2017-11-29T23:56:00.237Z,8.30
2017-11-29T23:58:28.524Z,8.68
